Delta Virtual Airport Information Service

Cancun International Airport

ICAO: MMUN Country: Mexico
Latitude: 21.0365 Longitude: -86.877
Latest Arrival : DAL5633731 (SBGR-MMUN) Latest Departure : DAL5633732 (MMUN-KLAX)


WX CaptureLIVE
Data provided by noaa.gov | Fetched at 08:46:25

METAR : MMUN 301349Z 00000KT 6SM BKN040 BKN080 24/23 A3000 RMK 8/470

TAF : MMUN 301255Z 3013/0118 16005KT 6SM HZ BKN020 OVC070 TX26/3018Z TN22/3013Z TEMPO 3013/3016 5SM -RA FM301700 33015G25KT 5SM -RA BKN015 OVC070 TEMPO 3021/0101 2SM SHRA OVC010CB FM010300 33020KT 6SM HZ BKN015 FM011600 33015KT P6SM BKN020


Runway Data for MMUN
Data provided by openaviationdata.com

Runway ID Mag Var Hdg Length Elevation Surface ILS Freq ILS Id ILS Slope
12 2 121° 11497 ft 20 ft Asphalt 108.55 IABA 3
30 2 301° 11497 ft 20 ft Asphalt -- -- --

Cancun International Airport, Mexico
Use only for reference purposes



Not for navigational purposes.